Time;durP1;ratioP1;P1;durP2;ratioP2;P2;SDS_P1;SDS_P2;PMS_P1;PMS_P2;Temp;Humidity;BMP_temperature;BMP_pressure;BME280_temperature;BME280_humidity;BME280_pressure;Samples;Min_cycle;Max_cycle;Signal;HPM_P1;HPM_P2
2023/03/29 00:02:55;;;;;;;3.15;2.58;;;23.40;66.40;;;;;;6200332;28;83982;-69
2023/03/29 00:06:01;;;;;;;3.45;2.28;;;23.40;66.30;;;;;;6203005;28;83194;-69
2023/03/29 00:09:05;;;;;;;2.50;2.20;;;23.40;66.40;;;;;;6207881;28;84115;-69
2023/03/29 00:12:07;;;;;;;2.35;2.10;;;23.40;66.40;;;;;;6193990;28;84178;-69
2023/03/29 00:15:10;;;;;;;3.00;2.30;;;23.40;66.40;;;;;;6206044;28;83943;-67
2023/03/29 00:18:13;;;;;;;3.25;2.53;;;23.40;66.50;;;;;;6200410;28;83917;-67
2023/03/29 00:21:16;;;;;;;3.05;2.72;;;23.30;66.60;;;;;;6204282;28;83282;-67
2023/03/29 00:24:19;;;;;;;2.83;2.50;;;23.40;66.50;;;;;;6204590;28;84159;-67
2023/03/29 00:27:22;;;;;;;2.63;2.30;;;23.30;66.40;;;;;;6193747;28;84391;-66
2023/03/29 00:30:24;;;;;;;2.42;2.17;;;23.30;66.20;;;;;;6204781;28;85074;-69
2023/03/29 00:33:27;;;;;;;3.13;2.40;;;23.30;66.40;;;;;;6209173;28;83859;-69
2023/03/29 00:36:30;;;;;;;2.80;2.40;;;23.30;66.40;;;;;;6205225;28;84353;-69
2023/03/29 00:39:32;;;;;;;2.33;2.13;;;23.30;66.30;;;;;;6203771;28;84036;-69
2023/03/29 00:42:34;;;;;;;2.40;2.20;;;23.30;66.20;;;;;;6208130;28;84052;-69
2023/03/29 00:45:36;;;;;;;2.70;2.33;;;23.20;66.20;;;;;;6195920;28;84158;-69
2023/03/29 00:48:40;;;;;;;3.33;2.60;;;23.20;66.30;;;;;;6201474;28;82944;-69
2023/03/29 00:51:42;;;;;;;3.00;2.50;;;23.20;66.30;;;;;;6212486;28;83243;-69
2023/03/29 00:54:45;;;;;;;2.30;2.10;;;23.20;66.50;;;;;;6203865;28;84189;-69
2023/03/29 00:57:48;;;;;;;2.90;2.40;;;23.30;66.50;;;;;;6201464;28;84024;-69
2023/03/29 01:00:54;;;;;;;3.05;2.47;;;23.20;66.40;;;;;;6203756;28;84999;-69
2023/03/29 01:04:04;;;;;;;2.53;2.30;;;23.20;66.30;;;;;;6201975;28;84117;-69
2023/03/29 01:07:12;;;;;;;3.17;2.20;;;23.20;66.20;;;;;;6206751;28;83974;-69
2023/03/29 01:10:18;;;;;;;2.83;2.15;;;23.20;66.20;;;;;;6202684;28;84017;-69
2023/03/29 01:13:28;;;;;;;2.65;2.05;;;23.20;66.10;;;;;;6201390;28;84345;-69
2023/03/29 01:16:31;;;;;;;2.90;2.33;;;23.10;66.20;;;;;;6201152;28;84319;-69
2023/03/29 01:19:40;;;;;;;2.50;2.30;;;23.10;66.20;;;;;;6203262;28;83994;-69
2023/03/29 01:23:01;;;;;;;2.35;1.88;;;23.10;66.20;;;;;;6200325;28;83333;-69
2023/03/29 01:26:15;;;;;;;2.42;2.17;;;23.10;66.20;;;;;;6208888;28;82965;-69
2023/03/29 01:29:24;;;;;;;2.65;2.25;;;23.10;66.30;;;;;;6210384;28;84239;-69
2023/03/29 01:32:33;;;;;;;2.20;2.00;;;23.10;66.40;;;;;;6210459;28;84930;-69
2023/03/29 01:35:40;;;;;;;3.45;2.17;;;23.10;66.30;;;;;;6202090;28;84373;-70
2023/03/29 01:38:47;;;;;;;3.47;2.22;;;23.10;66.20;;;;;;6197786;28;83268;-69
2023/03/29 01:41:59;;;;;;;2.50;2.00;;;23.10;66.20;;;;;;6211539;28;83809;-68
2023/03/29 01:45:11;;;;;;;2.83;2.03;;;23.10;66.20;;;;;;6201768;28;84032;-68
2023/03/29 01:48:19;;;;;;;3.00;2.20;;;23.10;66.20;;;;;;6198044;28;83989;-68
2023/03/29 01:51:24;;;;;;;2.47;2.28;;;23.00;66.20;;;;;;6198636;28;83051;-68
2023/03/29 01:54:32;;;;;;;2.20;2.00;;;23.00;66.20;;;;;;6207868;28;83421;-68
2023/03/29 01:57:36;;;;;;;2.28;2.08;;;23.00;66.20;;;;;;6204656;28;83370;-68
2023/03/29 02:00:40;;;;;;;2.15;1.92;;;23.00;66.20;;;;;;6198611;28;83205;-68
2023/03/29 02:03:48;;;;;;;2.95;2.47;;;23.00;66.40;;;;;;6201258;28;85441;-68
2023/03/29 02:06:54;;;;;;;3.13;2.33;;;23.00;66.40;;;;;;6208530;28;83901;-68
2023/03/29 02:09:57;;;;;;;2.47;2.15;;;23.00;66.40;;;;;;6209981;28;84249;-68
2023/03/29 02:13:00;;;;;;;2.22;1.98;;;23.00;66.30;;;;;;6194269;28;84048;-68
2023/03/29 02:16:10;;;;;;;2.38;2.15;;;22.90;66.20;;;;;;6200405;28;83956;-68
2023/03/29 02:19:14;;;;;;;3.30;2.17;;;23.00;66.40;;;;;;6195954;28;83865;-68
2023/03/29 02:22:19;;;;;;;2.47;2.13;;;22.90;66.30;;;;;;6203509;28;84258;-68
2023/03/29 02:25:23;;;;;;;2.08;1.88;;;22.90;66.30;;;;;;6205301;28;83450;-68
2023/03/29 02:28:26;;;;;;;2.28;2.05;;;22.90;66.40;;;;;;6206336;28;84260;-68
2023/03/29 02:31:34;;;;;;;2.30;2.00;;;22.90;66.40;;;;;;6204767;28;83959;-68
2023/03/29 02:34:46;;;;;;;2.10;1.90;;;22.90;66.40;;;;;;6209295;28;83873;-69
2023/03/29 02:37:53;;;;;;;2.97;2.20;;;22.80;66.30;;;;;;6206486;28;83976;-68
2023/03/29 02:40:56;;;;;;;3.50;2.10;;;22.90;66.40;;;;;;6208584;28;84037;-69
2023/03/29 02:43:59;;;;;;;2.10;1.90;;;22.90;66.50;;;;;;6210927;28;84307;-68
2023/03/29 02:47:06;;;;;;;2.20;2.00;;;22.90;66.40;;;;;;6208684;28;84030;-68
2023/03/29 02:50:09;;;;;;;2.17;1.83;;;22.90;66.20;;;;;;6208294;28;84054;-68
2023/03/29 02:53:16;;;;;;;3.42;2.40;;;22.90;66.20;;;;;;6208873;28;83296;-68
2023/03/29 02:56:19;;;;;;;5.82;3.35;;;22.90;66.20;;;;;;6203763;28;83358;-68
2023/03/29 02:59:23;;;;;;;2.60;2.20;;;22.80;66.20;;;;;;6196777;28;83209;-68
2023/03/29 03:02:26;;;;;;;2.55;2.33;;;22.80;66.30;;;;;;6209786;28;84907;-68
2023/03/29 03:05:28;;;;;;;2.50;2.30;;;22.70;66.20;;;;;;6208342;28;85501;-68
2023/03/29 03:08:30;;;;;;;2.47;2.13;;;22.70;66.20;;;;;;6206057;28;84021;-68
2023/03/29 03:11:33;;;;;;;2.53;2.30;;;22.70;66.20;;;;;;6208440;28;84030;-68
2023/03/29 03:14:35;;;;;;;2.60;2.40;;;22.70;66.20;;;;;;6204427;28;82990;-68
2023/03/29 03:17:39;;;;;;;2.60;2.40;;;22.70;66.20;;;;;;6200450;28;84046;-68
2023/03/29 03:20:45;;;;;;;2.67;2.47;;;22.80;66.30;;;;;;6196590;28;84079;-68
2023/03/29 03:23:48;;;;;;;2.95;2.60;;;22.80;66.30;;;;;;6205777;28;83832;-67
2023/03/29 03:26:50;;;;;;;2.95;2.70;;;22.70;65.50;;;;;;6200945;28;83471;-68
2023/03/29 03:29:52;;;;;;;2.80;2.60;;;22.70;65.40;;;;;;6205033;28;84074;-68
2023/03/29 03:32:56;;;;;;;3.20;2.90;;;22.80;65.50;;;;;;6209430;28;82966;-68
2023/03/29 03:36:01;;;;;;;3.67;3.20;;;22.80;65.40;;;;;;6207231;28;85141;-68
2023/03/29 03:39:05;;;;;;;3.40;3.08;;;22.70;65.30;;;;;;6192374;28;84030;-68
2023/03/29 03:42:07;;;;;;;3.50;3.20;;;22.80;65.30;;;;;;6202530;28;83703;-68
2023/03/29 03:45:11;;;;;;;3.80;3.30;;;22.80;65.20;;;;;;6210159;28;84363;-68
2023/03/29 03:48:14;;;;;;;3.90;3.50;;;22.80;65.20;;;;;;6205651;28;83251;-68
2023/03/29 03:51:17;;;;;;;3.97;3.58;;;22.90;65.10;;;;;;6184463;28;84056;-67
2023/03/29 03:54:19;;;;;;;3.83;3.47;;;22.90;65.00;;;;;;6196818;28;82951;-68
2023/03/29 03:57:21;;;;;;;4.22;3.80;;;22.90;64.90;;;;;;6196908;28;83408;-68
2023/03/29 04:00:24;;;;;;;4.22;3.83;;;22.90;64.80;;;;;;6207093;28;84069;-67
2023/03/29 04:03:27;;;;;;;4.38;3.90;;;22.90;64.70;;;;;;6188971;28;84049;-68
2023/03/29 04:06:30;;;;;;;4.70;4.20;;;23.00;64.70;;;;;;6197050;28;84114;-68
2023/03/29 04:09:33;;;;;;;4.20;3.80;;;23.00;64.70;;;;;;6199323;28;84111;-68
2023/03/29 04:12:35;;;;;;;4.50;4.10;;;23.00;64.50;;;;;;6201400;28;84391;-68
2023/03/29 04:15:38;;;;;;;4.97;4.10;;;23.00;64.50;;;;;;6208505;28;84035;-67
2023/03/29 04:18:41;;;;;;;4.50;4.10;;;23.00;64.40;;;;;;6197944;28;84381;-68
2023/03/29 04:21:44;;;;;;;4.53;4.13;;;23.10;64.40;;;;;;6205869;28;83984;-69
2023/03/29 04:24:46;;;;;;;4.75;4.25;;;23.10;64.40;;;;;;6190768;28;83857;-68
2023/03/29 04:27:49;;;;;;;5.10;4.60;;;23.10;64.40;;;;;;6208986;28;82189;-68
2023/03/29 04:30:51;;;;;;;5.07;4.57;;;23.10;64.20;;;;;;6197233;28;84061;-68
2023/03/29 04:33:55;;;;;;;5.68;5.05;;;23.10;64.20;;;;;;6194753;28;84369;-68
2023/03/29 04:36:57;;;;;;;4.65;4.25;;;23.10;64.20;;;;;;6193798;28;85223;-68
2023/03/29 04:40:00;;;;;;;5.57;4.45;;;23.10;64.10;;;;;;6195564;28;83943;-68
2023/03/29 04:43:02;;;;;;;5.63;4.95;;;23.20;64.20;;;;;;6207968;28;84147;-68
2023/03/29 04:46:06;;;;;;;4.70;4.30;;;23.20;64.00;;;;;;6207724;28;84019;-68
2023/03/29 04:49:10;;;;;;;5.85;4.53;;;23.20;64.00;;;;;;6208200;28;83982;-68
2023/03/29 04:52:12;;;;;;;5.25;4.50;;;23.20;63.30;;;;;;6215639;28;84038;-69
2023/03/29 04:55:14;;;;;;;5.70;4.45;;;23.20;61.60;;;;;;6205024;28;84013;-68
2023/03/29 04:58:16;;;;;;;5.40;4.25;;;23.20;61.10;;;;;;6195765;28;83417;-68
2023/03/29 05:01:18;;;;;;;6.10;4.40;;;23.20;61.00;;;;;;6202639;28;83955;-67
2023/03/29 05:04:23;;;;;;;6.60;4.60;;;23.20;60.90;;;;;;6198509;28;84363;-68
2023/03/29 05:07:25;;;;;;;7.60;4.80;;;23.10;61.40;;;;;;6193944;28;83835;-68
2023/03/29 05:10:27;;;;;;;7.10;4.65;;;23.20;62.00;;;;;;6208294;28;84061;-69
2023/03/29 05:13:29;;;;;;;7.32;4.90;;;23.20;62.30;;;;;;6207969;28;84114;-69
2023/03/29 05:16:31;;;;;;;6.22;4.78;;;23.20;62.50;;;;;;6210539;28;84082;-68
2023/03/29 05:19:37;;;;;;;7.68;4.70;;;23.20;62.60;;;;;;6199478;28;84015;-69
2023/03/29 05:22:39;;;;;;;6.32;4.53;;;23.30;62.80;;;;;;6201966;28;83028;-68
2023/03/29 05:25:42;;;;;;;6.80;4.40;;;23.20;62.70;;;;;;6199768;28;83975;-68
2023/03/29 05:28:44;;;;;;;5.95;4.68;;;23.20;62.80;;;;;;6211020;28;83338;-68
2023/03/29 05:31:46;;;;;;;5.55;4.78;;;23.30;62.90;;;;;;6199278;28;82723;-68
2023/03/29 05:34:50;;;;;;;5.00;4.50;;;23.30;63.00;;;;;;6212389;28;84073;-69
2023/03/29 05:37:55;;;;;;;5.40;4.80;;;23.30;63.00;;;;;;6210994;28;85244;-68
2023/03/29 05:40:57;;;;;;;5.20;4.70;;;23.30;63.00;;;;;;6189023;28;84129;-68
2023/03/29 05:43:59;;;;;;;7.45;5.10;;;23.30;63.00;;;;;;6192750;28;83266;-68
2023/03/29 05:47:01;;;;;;;6.45;4.80;;;23.30;63.00;;;;;;6197608;28;84045;-68
2023/03/29 05:50:08;;;;;;;5.65;4.78;;;23.30;63.00;;;;;;6210661;28;84122;-68
2023/03/29 05:53:10;;;;;;;5.68;5.07;;;23.30;63.00;;;;;;6209208;28;83994;-68
2023/03/29 05:56:14;;;;;;;6.07;5.07;;;23.30;63.10;;;;;;6198604;28;84446;-68
2023/03/29 05:59:18;;;;;;;6.03;5.40;;;23.30;63.00;;;;;;6199164;28;82473;-68
2023/03/29 06:02:20;;;;;;;5.85;5.28;;;23.30;63.10;;;;;;6209630;28;84030;-69
2023/03/29 06:05:24;;;;;;;6.03;5.32;;;23.30;63.10;;;;;;6212043;28;84015;-68
2023/03/29 06:08:27;;;;;;;5.70;5.20;;;23.30;63.10;;;;;;6210757;28;85073;-68
2023/03/29 06:11:30;;;;;;;6.32;5.57;;;23.30;63.00;;;;;;6187999;28;84037;-68
2023/03/29 06:14:32;;;;;;;5.70;5.15;;;23.30;63.00;;;;;;6207745;28;82948;-68
2023/03/29 06:17:34;;;;;;;5.93;5.32;;;23.30;63.00;;;;;;6210577;28;82991;-68
2023/03/29 06:20:38;;;;;;;6.00;5.40;;;23.40;63.10;;;;;;6210006;28;84126;-69
2023/03/29 06:23:40;;;;;;;6.30;5.43;;;23.40;63.20;;;;;;6205191;28;84035;-68
2023/03/29 06:26:42;;;;;;;6.47;5.45;;;23.40;63.20;;;;;;6210665;28;84179;-69
2023/03/29 06:29:46;;;;;;;6.80;5.60;;;23.30;63.10;;;;;;6204163;28;83533;-68
2023/03/29 06:32:49;;;;;;;6.97;6.15;;;23.40;63.20;;;;;;6204631;28;84253;-68
2023/03/29 06:35:52;;;;;;;6.55;5.85;;;23.40;63.10;;;;;;6210506;28;82866;-68
2023/03/29 06:38:55;;;;;;;7.85;6.10;;;23.40;63.10;;;;;;6209447;28;85315;-68
2023/03/29 06:41:57;;;;;;;6.47;5.88;;;23.40;63.10;;;;;;6198476;28;84197;-68
2023/03/29 06:44:59;;;;;;;7.32;6.63;;;23.40;63.10;;;;;;6207250;28;84020;-68
2023/03/29 06:48:01;;;;;;;6.60;5.90;;;23.40;63.10;;;;;;6201614;28;84130;-68
2023/03/29 06:51:06;;;;;;;6.72;6.00;;;23.40;63.00;;;;;;6202873;28;84132;-69
2023/03/29 06:54:08;;;;;;;5.93;5.35;;;23.40;63.00;;;;;;6203472;28;84582;-68
2023/03/29 06:57:11;;;;;;;6.47;5.88;;;23.40;63.00;;;;;;6201438;28;84006;-68
2023/03/29 07:00:17;;;;;;;6.30;5.70;;;23.40;63.00;;;;;;6210316;28;82405;-68
2023/03/29 07:03:22;;;;;;;6.80;6.10;;;23.40;63.00;;;;;;6208940;28;83827;-68
2023/03/29 07:06:25;;;;;;;6.97;6.28;;;23.40;63.00;;;;;;6204467;28;84087;-68
2023/03/29 07:09:29;;;;;;;6.60;5.80;;;23.40;63.00;;;;;;6200737;28;84910;-68
2023/03/29 07:12:31;;;;;;;7.35;6.53;;;23.40;63.00;;;;;;6196538;28;84362;-69
2023/03/29 07:15:33;;;;;;;6.82;6.15;;;23.40;63.00;;;;;;6197285;28;83255;-67
2023/03/29 07:18:35;;;;;;;6.80;6.03;;;23.40;63.00;;;;;;6209406;28;85233;-68
2023/03/29 07:21:39;;;;;;;6.20;5.60;;;23.40;63.00;;;;;;6194817;28;84048;-68
2023/03/29 07:24:41;;;;;;;6.32;5.72;;;23.40;63.00;;;;;;6206849;28;83993;-68
2023/03/29 07:27:43;;;;;;;6.32;5.72;;;23.40;63.00;;;;;;6209690;28;84376;-68
2023/03/29 07:30:45;;;;;;;6.50;5.90;;;23.40;63.00;;;;;;6209419;28;83469;-67
2023/03/29 07:33:51;;;;;;;5.95;5.35;;;23.50;63.00;;;;;;6196458;28;84315;-67
2023/03/29 07:36:54;;;;;;;6.68;5.97;;;23.40;63.00;;;;;;6208838;28;83979;-67
2023/03/29 07:39:56;;;;;;;7.25;6.35;;;23.40;63.00;;;;;;6208113;28;85253;-68
2023/03/29 07:42:58;;;;;;;6.13;5.60;;;23.40;63.00;;;;;;6208613;28;83200;-68
2023/03/29 07:46:01;;;;;;;7.38;6.30;;;23.40;63.00;;;;;;6209871;28;82924;-68
2023/03/29 07:49:03;;;;;;;6.78;6.07;;;23.40;63.00;;;;;;6208888;28;84252;-68
2023/03/29 07:52:06;;;;;;;7.18;6.47;;;23.50;63.00;;;;;;6201913;28;83959;-68
2023/03/29 07:55:11;;;;;;;6.75;6.05;;;23.50;63.00;;;;;;6184775;28;82997;-68
2023/03/29 07:58:14;;;;;;;7.82;6.40;;;23.50;63.00;;;;;;6197649;28;83861;-68
2023/03/29 08:01:18;;;;;;;7.75;6.60;;;23.50;63.00;;;;;;6191592;28;83217;-68
2023/03/29 08:04:20;;;;;;;8.90;7.25;;;23.50;63.00;;;;;;6196191;28;83830;-68
2023/03/29 08:07:24;;;;;;;7.50;6.60;;;23.40;62.90;;;;;;6196521;28;84016;-68
2023/03/29 08:10:27;;;;;;;8.77;6.60;;;23.50;63.00;;;;;;6207041;28;84919;-68
2023/03/29 08:13:29;;;;;;;7.25;6.18;;;23.50;63.00;;;;;;6208753;28;83788;-68
2023/03/29 08:16:31;;;;;;;7.82;7.03;;;23.50;63.00;;;;;;6201231;28;82932;-68
2023/03/29 08:19:33;;;;;;;7.80;6.93;;;23.50;63.00;;;;;;6204381;28;84011;-69
2023/03/29 08:22:37;;;;;;;8.43;7.03;;;23.50;63.00;;;;;;6202748;28;83980;-68
2023/03/29 08:25:40;;;;;;;9.20;6.63;;;23.50;63.80;;;;;;6206130;28;82986;-68
2023/03/29 08:28:42;;;;;;;8.15;7.18;;;23.50;63.10;;;;;;6196739;28;82919;-67
2023/03/29 08:31:44;;;;;;;10.10;7.15;;;23.50;63.00;;;;;;6208450;28;83540;-68
2023/03/29 08:34:46;;;;;;;9.27;7.13;;;23.50;63.00;;;;;;6191828;28;84261;-67
2023/03/29 08:37:50;;;;;;;8.38;6.95;;;23.50;62.90;;;;;;6189370;28;83968;-67
2023/03/29 08:40:52;;;;;;;8.75;7.05;;;23.60;63.00;;;;;;6188889;28;85306;-68
2023/03/29 08:44:06;;;;;;;8.70;7.10;;;23.50;63.00;;;;;;6208471;28;84111;-67
2023/03/29 08:47:17;;;;;;;8.68;6.85;;;23.50;63.00;;;;;;6206742;28;84041;-68
2023/03/29 08:50:20;;;;;;;7.50;6.70;;;23.50;62.90;;;;;;6198553;28;84345;-68
2023/03/29 08:53:29;;;;;;;8.15;6.90;;;23.50;62.80;;;;;;6211665;28;82903;-68
2023/03/29 08:56:34;;;;;;;7.95;6.75;;;23.50;62.90;;;;;;6199051;28;84063;-68
2023/03/29 08:59:37;;;;;;;8.80;6.93;;;23.60;62.90;;;;;;6212684;28;84417;-68
2023/03/29 09:02:43;;;;;;;8.27;6.82;;;23.60;62.90;;;;;;6208031;28;83409;-67
2023/03/29 09:05:48;;;;;;;8.20;6.80;;;23.60;62.90;;;;;;6199117;28;82011;-68
2023/03/29 09:08:53;;;;;;;10.02;7.13;;;23.50;62.80;;;;;;6212366;28;84062;-68
2023/03/29 09:12:06;;;;;;;8.30;6.63;;;23.50;62.80;;;;;;6199754;28;84905;-68
2023/03/29 09:15:15;;;;;;;10.68;7.00;;;23.50;62.80;;;;;;6201087;28;84042;-68
2023/03/29 09:18:26;;;;;;;8.35;6.72;;;23.50;62.80;;;;;;6200176;28;84007;-68
2023/03/29 09:21:36;;;;;;;9.07;7.30;;;23.60;63.00;;;;;;6199202;28;84088;-68
2023/03/29 09:24:53;;;;;;;8.68;6.95;;;23.50;62.90;;;;;;6210699;28;85539;-68
2023/03/29 09:28:02;;;;;;;9.02;6.70;;;23.50;62.80;;;;;;6210542;28;83991;-68
2023/03/29 09:31:11;;;;;;;8.63;6.45;;;23.50;62.80;;;;;;6199437;28;84099;-68
2023/03/29 09:34:15;;;;;;;9.25;6.93;;;23.50;62.80;;;;;;6211954;28;83802;-68
2023/03/29 09:37:23;;;;;;;8.18;6.53;;;23.60;62.90;;;;;;6212355;28;84388;-68
2023/03/29 09:40:33;;;;;;;7.50;6.32;;;23.50;62.80;;;;;;6211199;28;84419;-68
2023/03/29 09:43:37;;;;;;;8.98;6.75;;;23.50;62.80;;;;;;6210280;28;85051;-68
2023/03/29 09:46:42;;;;;;;10.18;7.00;;;23.50;62.80;;;;;;6199591;28;82901;-68
2023/03/29 09:49:47;;;;;;;9.75;7.07;;;23.60;62.80;;;;;;6211307;28;84123;-68
2023/03/29 09:52:49;;;;;;;8.23;6.32;;;23.60;62.90;;;;;;6211983;28;84125;-68
2023/03/29 09:55:54;;;;;;;8.82;6.80;;;23.60;62.90;;;;;;6211882;28;85314;-68
2023/03/29 09:58:56;;;;;;;8.93;6.72;;;23.50;62.80;;;;;;6201372;28;84410;-68
2023/03/29 10:02:07;;;;;;;8.10;6.43;;;23.60;62.90;;;;;;6210868;28;83117;-68
2023/03/29 10:05:16;;;;;;;7.93;6.47;;;23.60;63.00;;;;;;6198470;28;83333;-67
2023/03/29 10:08:27;;;;;;;8.82;6.70;;;23.50;62.80;;;;;;6197270;28;82886;-67
2023/03/29 10:11:32;;;;;;;8.18;6.20;;;23.60;62.90;;;;;;6197654;28;84090;-68
2023/03/29 10:14:37;;;;;;;7.35;6.20;;;23.50;62.80;;;;;;6189268;28;84833;-67
2023/03/29 10:17:41;;;;;;;7.45;6.07;;;23.60;63.00;;;;;;6198340;28;83057;-68
2023/03/29 10:20:44;;;;;;;8.43;6.45;;;23.60;62.80;;;;;;6206146;28;82992;-68
2023/03/29 10:23:46;;;;;;;9.02;6.18;;;23.60;62.80;;;;;;6203575;28;84157;-68
2023/03/29 10:26:54;;;;;;;7.32;5.82;;;23.60;62.90;;;;;;6201237;28;84472;-67
2023/03/29 10:29:58;;;;;;;6.68;5.80;;;23.60;62.90;;;;;;6192069;28;83991;-68
2023/03/29 10:33:01;;;;;;;8.30;6.10;;;23.60;62.90;;;;;;6208862;28;83987;-68
2023/03/29 10:36:06;;;;;;;8.80;5.95;;;23.60;62.90;;;;;;6188356;28;82163;-68
2023/03/29 10:39:13;;;;;;;7.28;5.93;;;23.60;62.80;;;;;;6199153;28;84549;-67
2023/03/29 10:42:19;;;;;;;7.50;5.95;;;23.60;62.80;;;;;;6204990;28;83128;-68
2023/03/29 10:45:26;;;;;;;7.47;5.72;;;23.60;62.90;;;;;;6207603;28;84933;-68
2023/03/29 10:48:30;;;;;;;6.75;5.63;;;23.60;62.90;;;;;;6210341;28;85500;-69
2023/03/29 10:51:33;;;;;;;8.25;6.28;;;23.60;62.90;;;;;;6205996;28;84044;-68
2023/03/29 10:54:36;;;;;;;7.80;5.75;;;23.60;63.00;;;;;;6198531;28;82731;-68
2023/03/29 10:57:49;;;;;;;7.03;5.72;;;23.60;63.00;;;;;;6198732;28;83918;-67
2023/03/29 11:00:55;;;;;;;6.65;5.50;;;23.50;63.00;;;;;;6208925;28;84153;-68
2023/03/29 11:04:08;;;;;;;7.25;5.72;;;23.50;63.00;;;;;;6210181;28;84107;-69
2023/03/29 11:07:25;;;;;;;6.75;5.38;;;23.50;63.10;;;;;;6210438;28;82288;-68
2023/03/29 11:10:38;;;;;;;7.32;5.95;;;23.50;63.10;;;;;;6199512;28;84548;-68
2023/03/29 11:13:50;;;;;;;7.05;5.50;;;23.40;63.10;;;;;;6207908;28;84056;-68
2023/03/29 11:17:03;;;;;;;6.80;5.47;;;23.40;63.20;;;;;;6196156;28;84944;-68
2023/03/29 11:20:20;;;;;;;6.55;5.28;;;23.40;63.20;;;;;;6185479;28;84081;-69
2023/03/29 11:23:36;;;;;;;6.70;5.30;;;23.40;63.30;;;;;;6198419;28;82031;-68
2023/03/29 11:26:46;;;;;;;6.07;5.07;;;23.40;63.30;;;;;;6209684;28;83642;-69
2023/03/29 11:30:01;;;;;;;7.00;4.95;;;23.40;63.40;;;;;;6201685;28;84048;-68
2023/03/29 11:33:16;;;;;;;7.00;5.50;;;23.40;63.40;;;;;;6207779;28;84031;-68
2023/03/29 11:36:25;;;;;;;6.15;5.10;;;23.40;63.40;;;;;;6196044;28;82932;-68
2023/03/29 11:39:38;;;;;;;6.72;5.00;;;23.40;63.40;;;;;;6197159;28;83260;-68
2023/03/29 11:42:46;;;;;;;5.95;5.00;;;23.40;63.30;;;;;;6209110;28;83994;-68
2023/03/29 11:45:55;;;;;;;5.65;4.78;;;23.40;63.40;;;;;;6206327;28;84186;-68
2023/03/29 11:49:04;;;;;;;5.53;4.75;;;23.40;63.30;;;;;;6207460;28;85015;-69
2023/03/29 11:52:12;;;;;;;6.35;4.90;;;23.40;63.30;;;;;;6209304;28;84013;-68
2023/03/29 11:55:19;;;;;;;5.28;4.40;;;23.40;63.30;;;;;;6196524;28;84196;-68
2023/03/29 11:58:27;;;;;;;5.97;4.78;;;23.40;63.30;;;;;;6196105;28;84033;-68
2023/03/29 12:01:34;;;;;;;6.30;4.88;;;23.40;63.30;;;;;;6207983;28;84105;-68
2023/03/29 12:04:43;;;;;;;5.55;4.80;;;23.40;63.20;;;;;;6209830;28;84343;-68
2023/03/29 12:07:50;;;;;;;6.30;4.65;;;23.40;63.20;;;;;;6208725;28;84382;-68
2023/03/29 12:11:01;;;;;;;5.28;4.38;;;23.40;63.60;;;;;;6196013;28;83454;-69
2023/03/29 12:14:09;;;;;;;5.03;4.38;;;23.50;63.30;;;;;;6205050;28;84109;-68
2023/03/29 12:17:17;;;;;;;6.63;4.75;;;23.40;63.30;;;;;;6199236;28;85092;-68
2023/03/29 12:20:25;;;;;;;5.03;4.47;;;23.50;63.30;;;;;;6206014;28;83996;-68
2023/03/29 12:23:30;;;;;;;5.13;3.97;;;23.40;63.20;;;;;;6197270;28;84454;-68
2023/03/29 12:27:07;;;;;;;5.22;4.00;;;23.50;63.30;;;;;;6212183;28;84013;-68
2023/03/29 12:30:26;;;;;;;4.82;4.25;;;23.50;63.30;;;;;;6199188;28;82945;-67
2023/03/29 12:33:55;;;;;;;5.63;4.30;;;23.50;63.20;;;;;;6211329;28;83952;-68
2023/03/29 12:37:31;;;;;;;4.93;4.07;;;23.50;63.20;;;;;;6204581;28;84305;-68
2023/03/29 12:40:41;;;;;;;4.97;4.03;;;23.50;63.20;;;;;;6199603;28;84051;-68
2023/03/29 12:43:44;;;;;;;5.38;4.18;;;23.50;63.20;;;;;;6210526;28;83216;-68
2023/03/29 12:46:46;;;;;;;4.25;3.72;;;23.50;63.30;;;;;;6212585;28;82808;-68
2023/03/29 12:49:55;;;;;;;5.47;4.10;;;23.50;63.30;;;;;;6211568;28;83092;-68
2023/03/29 12:53:04;;;;;;;5.13;4.20;;;23.50;63.30;;;;;;6200744;28;85010;-68
2023/03/29 12:56:13;;;;;;;4.72;3.65;;;23.50;63.30;;;;;;6211039;28;84119;-67
2023/03/29 12:59:26;;;;;;;4.95;3.88;;;23.50;63.30;;;;;;6199741;28;83167;-68
2023/03/29 13:02:36;;;;;;;5.07;3.92;;;23.50;63.20;;;;;;6201463;28;84126;-68
2023/03/29 13:05:40;;;;;;;5.45;4.28;;;23.50;63.20;;;;;;6211345;28;82737;-68
2023/03/29 13:08:44;;;;;;;4.22;3.83;;;23.50;63.20;;;;;;6201952;28;84235;-68
2023/03/29 13:11:53;;;;;;;3.83;3.42;;;23.50;63.30;;;;;;6201616;28;84160;-68
2023/03/29 13:14:57;;;;;;;4.43;3.80;;;23.60;63.30;;;;;;6211601;28;83454;-69
2023/03/29 13:18:14;;;;;;;5.03;3.60;;;23.50;63.20;;;;;;6210824;28;84359;-68
2023/03/29 13:21:24;;;;;;;3.85;3.50;;;23.50;63.30;;;;;;6210575;28;84410;-69
2023/03/29 13:24:46;;;;;;;3.80;3.40;;;23.50;63.30;;;;;;6205293;28;84965;-68
2023/03/29 13:27:56;;;;;;;4.00;3.42;;;23.50;63.30;;;;;;6211483;28;84140;-68
2023/03/29 13:31:03;;;;;;;4.18;3.45;;;23.60;63.30;;;;;;6194033;28;82874;-68
2023/03/29 13:34:18;;;;;;;4.30;3.72;;;23.50;63.30;;;;;;6200550;28;84122;-68
2023/03/29 13:37:35;;;;;;;5.07;3.50;;;23.50;63.30;;;;;;6199539;28;83995;-69
2023/03/29 13:40:46;;;;;;;3.85;3.45;;;23.60;63.30;;;;;;6206284;28;84082;-69
2023/03/29 13:43:53;;;;;;;4.60;3.42;;;23.60;63.40;;;;;;6197927;28;84077;-69
2023/03/29 13:47:05;;;;;;;3.35;3.03;;;23.60;63.30;;;;;;6210528;28;83390;-69
2023/03/29 13:50:16;;;;;;;3.50;3.20;;;23.60;63.30;;;;;;6195121;28;84129;-68
2023/03/29 13:53:27;;;;;;;4.00;3.30;;;23.50;63.30;;;;;;6190476;28;84069;-68
2023/03/29 13:56:34;;;;;;;4.35;3.50;;;23.50;63.30;;;;;;6207782;28;85064;-69
2023/03/29 13:59:43;;;;;;;4.10;3.50;;;23.50;63.30;;;;;;6200881;28;84070;-69
2023/03/29 14:02:48;;;;;;;3.72;3.08;;;23.50;63.30;;;;;;6189261;28;84620;-69
2023/03/29 14:05:57;;;;;;;4.13;3.38;;;23.50;63.40;;;;;;6211129;28;84340;-69
2023/03/29 14:09:05;;;;;;;4.10;3.28;;;23.50;63.40;;;;;;6188151;28;84034;-69
2023/03/29 14:12:10;;;;;;;3.33;3.03;;;23.50;63.40;;;;;;6198844;28;83942;-69
2023/03/29 14:15:22;;;;;;;3.85;3.33;;;23.50;63.40;;;;;;6209958;28;84124;-69
2023/03/29 14:18:27;;;;;;;3.40;2.90;;;23.50;63.40;;;;;;6209790;28;83135;-69
2023/03/29 14:21:29;;;;;;;3.92;2.83;;;23.50;63.40;;;;;;6206058;28;83906;-69
2023/03/29 14:24:39;;;;;;;3.53;3.05;;;23.50;63.50;;;;;;6207235;28;84198;-68
2023/03/29 14:27:41;;;;;;;3.80;2.78;;;23.50;63.50;;;;;;6206838;28;83973;-69
2023/03/29 14:30:46;;;;;;;3.40;2.80;;;23.50;63.50;;;;;;6188836;28;84025;-69
2023/03/29 14:33:52;;;;;;;3.53;2.90;;;23.50;63.50;;;;;;6185832;28;83994;-70
2023/03/29 14:36:54;;;;;;;4.30;3.30;;;23.40;63.50;;;;;;6187509;28;83997;-69
2023/03/29 14:39:59;;;;;;;3.78;3.00;;;23.50;63.50;;;;;;6209368;28;83719;-69
2023/03/29 14:43:05;;;;;;;3.40;3.10;;;23.50;63.50;;;;;;6200326;28;82933;-69
2023/03/29 14:46:08;;;;;;;3.30;2.88;;;23.40;63.50;;;;;;6210830;28;84289;-68
2023/03/29 14:49:12;;;;;;;3.00;2.65;;;23.50;63.60;;;;;;6209182;28;82323;-69
2023/03/29 14:52:15;;;;;;;3.38;2.80;;;23.50;63.60;;;;;;6197704;28;83500;-69
2023/03/29 14:55:22;;;;;;;3.20;2.75;;;23.50;63.60;;;;;;6208890;28;84062;-69
2023/03/29 14:58:28;;;;;;;3.47;2.80;;;23.50;63.50;;;;;;6208269;28;84791;-68
2023/03/29 15:01:31;;;;;;;3.78;2.83;;;23.50;63.60;;;;;;6203848;28;84038;-68
2023/03/29 15:04:34;;;;;;;3.53;2.75;;;23.50;63.50;;;;;;6202938;28;84397;-69
2023/03/29 15:07:38;;;;;;;3.30;2.80;;;23.50;63.60;;;;;;6210809;28;84095;-69
2023/03/29 15:10:42;;;;;;;4.28;3.28;;;23.60;63.70;;;;;;6206630;28;84624;-69
2023/03/29 15:13:45;;;;;;;4.15;2.95;;;23.60;63.70;;;;;;6198641;28;84360;-69
2023/03/29 15:16:50;;;;;;;3.03;2.72;;;23.50;63.60;;;;;;6210626;28;84106;-68
2023/03/29 15:19:53;;;;;;;2.90;2.60;;;23.60;63.70;;;;;;6209474;28;83626;-69
2023/03/29 15:22:59;;;;;;;3.15;2.53;;;23.60;63.70;;;;;;6195584;28;82943;-69
2023/03/29 15:26:13;;;;;;;3.55;2.70;;;23.50;63.70;;;;;;6190841;28;84118;-68
2023/03/29 15:29:22;;;;;;;2.65;2.45;;;23.50;63.70;;;;;;6190043;28;84975;-68
2023/03/29 15:32:25;;;;;;;2.90;2.47;;;23.50;63.70;;;;;;6201171;28;83210;-69
2023/03/29 15:35:28;;;;;;;2.50;2.08;;;23.50;63.70;;;;;;6209495;28;84449;-69
2023/03/29 15:38:30;;;;;;;3.00;2.55;;;23.50;63.70;;;;;;6207366;28;86592;-69
2023/03/29 15:41:34;;;;;;;2.65;2.42;;;23.50;63.70;;;;;;6196105;28;84272;-68
2023/03/29 15:44:38;;;;;;;2.88;2.42;;;23.50;63.80;;;;;;6208348;28;84102;-69
2023/03/29 15:47:41;;;;;;;2.92;2.53;;;23.60;63.80;;;;;;6209076;28;84759;-69
2023/03/29 15:50:44;;;;;;;2.97;2.30;;;23.50;63.70;;;;;;6194245;28;82188;-68
2023/03/29 15:53:46;;;;;;;2.97;2.40;;;23.50;63.80;;;;;;6208355;28;82843;-68
2023/03/29 15:56:53;;;;;;;3.78;2.53;;;23.50;63.80;;;;;;6195665;28;84007;-68
2023/03/29 15:59:56;;;;;;;2.45;2.25;;;23.50;63.70;;;;;;6207054;28;85261;-68
2023/03/29 16:02:58;;;;;;;3.20;2.40;;;23.50;63.80;;;;;;6207777;28;82960;-68
2023/03/29 16:06:00;;;;;;;3.00;2.63;;;23.50;63.80;;;;;;6195098;28;82981;-68